sensor_id;sensor_type;location;lat;lon;timestamp;temperature;humidity
41262;DHT22;29629;52.532;13.352;2023-04-01T00:00:31;10.20;99.90
41262;DHT22;29629;52.532;13.352;2023-04-01T00:02:58;10.10;99.90
41262;DHT22;29629;52.532;13.352;2023-04-01T00:05:27;10.20;99.90
41262;DHT22;29629;52.532;13.352;2023-04-01T00:07:54;10.20;99.90
41262;DHT22;29629;52.532;13.352;2023-04-01T00:10:21;10.20;99.90
41262;DHT22;29629;52.532;13.352;2023-04-01T00:12:48;10.20;99.90
41262;DHT22;29629;52.532;13.352;2023-04-01T00:15:15;10.30;99.90
41262;DHT22;29629;52.532;13.352;2023-04-01T00:17:42;10.30;99.90
41262;DHT22;29629;52.532;13.352;2023-04-01T00:20:10;10.30;99.90
41262;DHT22;29629;52.532;13.352;2023-04-01T00:22:39;10.30;99.90
41262;DHT22;29629;52.532;13.352;2023-04-01T00:25:06;10.30;99.90
41262;DHT22;29629;52.532;13.352;2023-04-01T00:27:33;10.30;99.90
41262;DHT22;29629;52.532;13.352;2023-04-01T00:30:00;10.30;99.90
41262;DHT22;29629;52.532;13.352;2023-04-01T00:32:28;10.30;99.90
41262;DHT22;29629;52.532;13.352;2023-04-01T00:34:56;10.30;99.90
41262;DHT22;29629;52.532;13.352;2023-04-01T00:37:24;10.40;99.90
41262;DHT22;29629;52.532;13.352;2023-04-01T00:39:53;10.30;99.90
41262;DHT22;29629;52.532;13.352;2023-04-01T00:42:20;10.30;99.90
41262;DHT22;29629;52.532;13.352;2023-04-01T00:44:49;10.40;99.90
41262;DHT22;29629;52.532;13.352;2023-04-01T00:47:17;10.40;99.90
41262;DHT22;29629;52.532;13.352;2023-04-01T00:49:46;10.40;99.90
41262;DHT22;29629;52.532;13.352;2023-04-01T00:52:17;10.30;99.90
41262;DHT22;29629;52.532;13.352;2023-04-01T00:54:46;10.40;99.90
41262;DHT22;29629;52.532;13.352;2023-04-01T00:57:18;10.40;99.90
41262;DHT22;29629;52.532;13.352;2023-04-01T00:59:48;10.50;99.90
41262;DHT22;29629;52.532;13.352;2023-04-01T01:02:16;10.50;99.90
41262;DHT22;29629;52.532;13.352;2023-04-01T01:04:44;10.50;99.90
41262;DHT22;29629;52.532;13.352;2023-04-01T01:07:18;10.40;99.90
41262;DHT22;29629;52.532;13.352;2023-04-01T01:09:48;10.40;99.90
41262;DHT22;29629;52.532;13.352;2023-04-01T01:12:23;10.50;99.90
41262;DHT22;29629;52.532;13.352;2023-04-01T01:14:56;10.50;99.90
41262;DHT22;29629;52.532;13.352;2023-04-01T01:17:39;10.40;99.90
41262;DHT22;29629;52.532;13.352;2023-04-01T01:26:45;10.30;99.90
41262;DHT22;29629;52.532;13.352;2023-04-01T01:32:27;10.40;99.90
41262;DHT22;29629;52.532;13.352;2023-04-01T01:35:08;10.30;99.90
41262;DHT22;29629;52.532;13.352;2023-04-01T01:37:38;10.40;99.90
41262;DHT22;29629;52.532;13.352;2023-04-01T01:40:08;10.30;99.90
41262;DHT22;29629;52.532;13.352;2023-04-01T01:42:39;10.30;99.90
41262;DHT22;29629;52.532;13.352;2023-04-01T01:45:09;10.30;99.90
41262;DHT22;29629;52.532;13.352;2023-04-01T01:47:40;10.30;99.90
41262;DHT22;29629;52.532;13.352;2023-04-01T01:50:09;10.30;99.90
41262;DHT22;29629;52.532;13.352;2023-04-01T01:52:37;10.20;99.90
41262;DHT22;29629;52.532;13.352;2023-04-01T01:55:23;10.30;99.90
41262;DHT22;29629;52.532;13.352;2023-04-01T01:57:51;10.30;99.90
41262;DHT22;29629;52.532;13.352;2023-04-01T02:00:19;10.30;99.90
41262;DHT22;29629;52.532;13.352;2023-04-01T02:02:47;10.30;99.90
41262;DHT22;29629;52.532;13.352;2023-04-01T02:05:18;10.40;99.90
41262;DHT22;29629;52.532;13.352;2023-04-01T02:07:49;10.40;99.90
41262;DHT22;29629;52.532;13.352;2023-04-01T02:10:20;10.30;99.90
41262;DHT22;29629;52.532;13.352;2023-04-01T02:12:49;10.40;99.90
41262;DHT22;29629;52.532;13.352;2023-04-01T02:15:19;10.40;99.90
41262;DHT22;29629;52.532;13.352;2023-04-01T02:17:48;10.30;99.90
41262;DHT22;29629;52.532;13.352;2023-04-01T02:20:20;10.30;99.90
41262;DHT22;29629;52.532;13.352;2023-04-01T02:22:51;10.30;99.90
41262;DHT22;29629;52.532;13.352;2023-04-01T02:25:20;10.30;99.90
41262;DHT22;29629;52.532;13.352;2023-04-01T02:27:49;10.30;99.90
41262;DHT22;29629;52.532;13.352;2023-04-01T02:30:17;10.30;99.90
41262;DHT22;29629;52.532;13.352;2023-04-01T02:32:44;10.30;99.90
41262;DHT22;29629;52.532;13.352;2023-04-01T02:35:15;10.30;99.90
41262;DHT22;29629;52.532;13.352;2023-04-01T02:37:45;10.30;99.90
41262;DHT22;29629;52.532;13.352;2023-04-01T02:40:15;10.40;99.90
41262;DHT22;29629;52.532;13.352;2023-04-01T02:42:42;10.30;99.90
41262;DHT22;29629;52.532;13.352;2023-04-01T02:45:10;10.40;99.90
41262;DHT22;29629;52.532;13.352;2023-04-01T02:47:37;10.30;99.90
41262;DHT22;29629;52.532;13.352;2023-04-01T02:50:06;10.30;99.90
41262;DHT22;29629;52.532;13.352;2023-04-01T02:52:33;10.30;99.90
41262;DHT22;29629;52.532;13.352;2023-04-01T02:55:01;10.40;99.90
41262;DHT22;29629;52.532;13.352;2023-04-01T02:57:28;10.30;99.90
41262;DHT22;29629;52.532;13.352;2023-04-01T02:59:55;10.30;99.90
41262;DHT22;29629;52.532;13.352;2023-04-01T03:02:22;10.30;99.90
41262;DHT22;29629;52.532;13.352;2023-04-01T03:04:51;10.30;99.90
41262;DHT22;29629;52.532;13.352;2023-04-01T03:07:18;10.30;99.90
41262;DHT22;29629;52.532;13.352;2023-04-01T03:09:45;10.30;99.90
41262;DHT22;29629;52.532;13.352;2023-04-01T03:12:13;10.30;99.90
41262;DHT22;29629;52.532;13.352;2023-04-01T03:14:40;10.40;99.90
41262;DHT22;29629;52.532;13.352;2023-04-01T03:17:07;10.30;99.90
41262;DHT22;29629;52.532;13.352;2023-04-01T03:19:34;10.40;99.90
41262;DHT22;29629;52.532;13.352;2023-04-01T03:22:01;10.40;99.90
41262;DHT22;29629;52.532;13.352;2023-04-01T03:24:27;10.40;99.90
41262;DHT22;29629;52.532;13.352;2023-04-01T03:26:54;10.40;99.90
41262;DHT22;29629;52.532;13.352;2023-04-01T03:29:23;10.30;99.90
41262;DHT22;29629;52.532;13.352;2023-04-01T03:31:50;10.30;99.90
41262;DHT22;29629;52.532;13.352;2023-04-01T03:34:17;10.30;99.90
41262;DHT22;29629;52.532;13.352;2023-04-01T03:36:43;10.30;99.90
41262;DHT22;29629;52.532;13.352;2023-04-01T03:39:10;10.40;99.90
41262;DHT22;29629;52.532;13.352;2023-04-01T03:41:37;10.40;99.90
41262;DHT22;29629;52.532;13.352;2023-04-01T03:44:05;10.30;99.90
41262;DHT22;29629;52.532;13.352;2023-04-01T03:46:33;10.30;99.90
41262;DHT22;29629;52.532;13.352;2023-04-01T03:49:00;10.30;99.90
41262;DHT22;29629;52.532;13.352;2023-04-01T03:51:27;10.40;99.90
41262;DHT22;29629;52.532;13.352;2023-04-01T03:53:54;10.30;99.90
41262;DHT22;29629;52.532;13.352;2023-04-01T03:56:21;10.30;99.90
41262;DHT22;29629;52.532;13.352;2023-04-01T03:58:48;10.40;99.90
41262;DHT22;29629;52.532;13.352;2023-04-01T04:01:17;10.40;99.90
41262;DHT22;29629;52.532;13.352;2023-04-01T04:03:45;10.40;99.90
41262;DHT22;29629;52.532;13.352;2023-04-01T04:06:13;10.40;99.90
41262;DHT22;29629;52.532;13.352;2023-04-01T04:08:40;10.40;99.90
41262;DHT22;29629;52.532;13.352;2023-04-01T04:11:07;10.30;99.90
41262;DHT22;29629;52.532;13.352;2023-04-01T04:13:34;10.40;99.90
41262;DHT22;29629;52.532;13.352;2023-04-01T04:16:03;10.40;99.90
41262;DHT22;29629;52.532;13.352;2023-04-01T04:18:30;10.30;99.90
41262;DHT22;29629;52.532;13.352;2023-04-01T04:20:58;10.30;99.90
41262;DHT22;29629;52.532;13.352;2023-04-01T04:23:25;10.40;99.90
41262;DHT22;29629;52.532;13.352;2023-04-01T04:25:57;10.40;99.90
41262;DHT22;29629;52.532;13.352;2023-04-01T04:28:24;10.40;99.90
41262;DHT22;29629;52.532;13.352;2023-04-01T04:30:51;10.40;99.90
41262;DHT22;29629;52.532;13.352;2023-04-01T04:33:18;10.40;99.90
41262;DHT22;29629;52.532;13.352;2023-04-01T04:35:45;10.40;99.90
41262;DHT22;29629;52.532;13.352;2023-04-01T04:38:14;10.40;99.90
41262;DHT22;29629;52.532;13.352;2023-04-01T04:40:41;10.40;99.90
41262;DHT22;29629;52.532;13.352;2023-04-01T04:43:10;10.50;99.90
41262;DHT22;29629;52.532;13.352;2023-04-01T04:45:37;10.40;99.90
41262;DHT22;29629;52.532;13.352;2023-04-01T04:48:04;10.40;99.90
41262;DHT22;29629;52.532;13.352;2023-04-01T04:50:31;10.50;99.90
41262;DHT22;29629;52.532;13.352;2023-04-01T04:52:58;10.40;99.90
41262;DHT22;29629;52.532;13.352;2023-04-01T04:55:26;10.50;99.90
41262;DHT22;29629;52.532;13.352;2023-04-01T04:57:53;10.50;99.90
41262;DHT22;29629;52.532;13.352;2023-04-01T05:00:20;10.50;99.90
41262;DHT22;29629;52.532;13.352;2023-04-01T05:02:47;10.40;99.90
41262;DHT22;29629;52.532;13.352;2023-04-01T05:05:14;10.40;99.90
41262;DHT22;29629;52.532;13.352;2023-04-01T05:07:41;10.50;99.90
41262;DHT22;29629;52.532;13.352;2023-04-01T05:10:08;10.50;99.90
41262;DHT22;29629;52.532;13.352;2023-04-01T05:12:36;10.40;99.90
41262;DHT22;29629;52.532;13.352;2023-04-01T05:15:05;10.40;99.90
41262;DHT22;29629;52.532;13.352;2023-04-01T05:17:32;10.40;99.90
41262;DHT22;29629;52.532;13.352;2023-04-01T05:19:59;10.40;99.90
41262;DHT22;29629;52.532;13.352;2023-04-01T05:22:26;10.40;99.90
41262;DHT22;29629;52.532;13.352;2023-04-01T05:24:53;10.40;99.90
41262;DHT22;29629;52.532;13.352;2023-04-01T05:27:21;10.40;99.90
41262;DHT22;29629;52.532;13.352;2023-04-01T05:29:49;10.40;99.90
41262;DHT22;29629;52.532;13.352;2023-04-01T05:32:16;10.40;99.90
41262;DHT22;29629;52.532;13.352;2023-04-01T05:34:43;10.40;99.90
41262;DHT22;29629;52.532;13.352;2023-04-01T05:37:10;10.40;99.90
41262;DHT22;29629;52.532;13.352;2023-04-01T05:39:37;10.40;99.90
41262;DHT22;29629;52.532;13.352;2023-04-01T05:42:06;10.50;99.90
41262;DHT22;29629;52.532;13.352;2023-04-01T05:44:33;10.50;99.90
41262;DHT22;29629;52.532;13.352;2023-04-01T05:47:01;10.50;99.90
41262;DHT22;29629;52.532;13.352;2023-04-01T05:49:28;10.40;99.90
41262;DHT22;29629;52.532;13.352;2023-04-01T05:51:56;10.40;99.90
41262;DHT22;29629;52.532;13.352;2023-04-01T05:54:23;10.40;99.90
41262;DHT22;29629;52.532;13.352;2023-04-01T05:56:49;10.50;99.90
41262;DHT22;29629;52.532;13.352;2023-04-01T05:59:16;10.40;99.90
41262;DHT22;29629;52.532;13.352;2023-04-01T06:01:43;10.50;99.90
41262;DHT22;29629;52.532;13.352;2023-04-01T06:04:14;10.50;99.90
41262;DHT22;29629;52.532;13.352;2023-04-01T06:06:42;10.60;99.90
41262;DHT22;29629;52.532;13.352;2023-04-01T06:09:13;10.50;99.90
41262;DHT22;29629;52.532;13.352;2023-04-01T06:11:51;10.50;99.90
41262;DHT22;29629;52.532;13.352;2023-04-01T06:14:27;10.50;99.90
41262;DHT22;29629;52.532;13.352;2023-04-01T06:17:09;10.50;99.90
41262;DHT22;29629;52.532;13.352;2023-04-01T06:19:47;10.50;99.90
41262;DHT22;29629;52.532;13.352;2023-04-01T06:22:30;10.50;99.90
41262;DHT22;29629;52.532;13.352;2023-04-01T06:25:33;10.50;99.90
41262;DHT22;29629;52.532;13.352;2023-04-01T06:28:16;10.60;99.90
41262;DHT22;29629;52.532;13.352;2023-04-01T06:30:54;10.60;99.90
41262;DHT22;29629;52.532;13.352;2023-04-01T06:33:46;10.50;99.90
41262;DHT22;29629;52.532;13.352;2023-04-01T06:36:48;10.60;99.90
41262;DHT22;29629;52.532;13.352;2023-04-01T06:39:30;10.50;99.90
41262;DHT22;29629;52.532;13.352;2023-04-01T06:45:06;10.60;99.90
41262;DHT22;29629;52.532;13.352;2023-04-01T06:47:44;10.60;99.90
41262;DHT22;29629;52.532;13.352;2023-04-01T06:50:21;10.70;99.90
41262;DHT22;29629;52.532;13.352;2023-04-01T06:52:59;10.70;99.90
41262;DHT22;29629;52.532;13.352;2023-04-01T06:55:31;10.70;99.90
41262;DHT22;29629;52.532;13.352;2023-04-01T06:58:04;10.80;99.90
41262;DHT22;29629;52.532;13.352;2023-04-01T07:00:33;10.70;99.90
41262;DHT22;29629;52.532;13.352;2023-04-01T07:03:06;10.70;99.90
41262;DHT22;29629;52.532;13.352;2023-04-01T07:05:37;10.80;99.90
41262;DHT22;29629;52.532;13.352;2023-04-01T07:08:10;10.80;99.90
41262;DHT22;29629;52.532;13.352;2023-04-01T07:10:43;10.70;99.90
41262;DHT22;29629;52.532;13.352;2023-04-01T07:13:15;10.80;99.90
41262;DHT22;29629;52.532;13.352;2023-04-01T07:15:54;10.70;99.90
41262;DHT22;29629;52.532;13.352;2023-04-01T07:18:29;10.80;99.90
41262;DHT22;29629;52.532;13.352;2023-04-01T07:20:57;10.80;99.90
41262;DHT22;29629;52.532;13.352;2023-04-01T07:23:29;10.90;99.90
41262;DHT22;29629;52.532;13.352;2023-04-01T07:26:00;10.90;99.90
41262;DHT22;29629;52.532;13.352;2023-04-01T07:28:31;10.90;99.90
41262;DHT22;29629;52.532;13.352;2023-04-01T07:31:07;10.90;99.90
41262;DHT22;29629;52.532;13.352;2023-04-01T07:33:41;11.00;99.90
41262;DHT22;29629;52.532;13.352;2023-04-01T07:36:14;11.00;99.90
41262;DHT22;29629;52.532;13.352;2023-04-01T07:38:54;11.10;99.90
41262;DHT22;29629;52.532;13.352;2023-04-01T07:41:30;11.10;99.90
41262;DHT22;29629;52.532;13.352;2023-04-01T07:44:07;11.10;99.90
41262;DHT22;29629;52.532;13.352;2023-04-01T07:47:01;11.10;99.90
41262;DHT22;29629;52.532;13.352;2023-04-01T07:49:43;11.10;99.90
41262;DHT22;29629;52.532;13.352;2023-04-01T07:52:17;11.20;99.90
41262;DHT22;29629;52.532;13.352;2023-04-01T07:54:51;11.30;99.90
41262;DHT22;29629;52.532;13.352;2023-04-01T07:57:24;11.30;99.90
41262;DHT22;29629;52.532;13.352;2023-04-01T07:59:58;11.40;99.90
41262;DHT22;29629;52.532;13.352;2023-04-01T08:02:35;11.50;99.90
41262;DHT22;29629;52.532;13.352;2023-04-01T08:05:17;11.60;99.90
41262;DHT22;29629;52.532;13.352;2023-04-01T08:07:49;11.60;99.90
41262;DHT22;29629;52.532;13.352;2023-04-01T08:10:24;11.80;99.90
41262;DHT22;29629;52.532;13.352;2023-04-01T08:13:02;11.70;99.90
41262;DHT22;29629;52.532;13.352;2023-04-01T08:15:37;11.70;99.90
41262;DHT22;29629;52.532;13.352;2023-04-01T08:18:16;11.60;99.90
41262;DHT22;29629;52.532;13.352;2023-04-01T08:20:50;11.60;99.90
41262;DHT22;29629;52.532;13.352;2023-04-01T08:23:21;11.70;99.90
41262;DHT22;29629;52.532;13.352;2023-04-01T08:25:56;11.70;99.90
41262;DHT22;29629;52.532;13.352;2023-04-01T08:28:26;11.70;99.90
41262;DHT22;29629;52.532;13.352;2023-04-01T08:31:00;11.60;99.90
41262;DHT22;29629;52.532;13.352;2023-04-01T08:33:29;11.60;99.90
41262;DHT22;29629;52.532;13.352;2023-04-01T08:36:01;11.40;99.90
41262;DHT22;29629;52.532;13.352;2023-04-01T08:38:32;11.30;99.90
41262;DHT22;29629;52.532;13.352;2023-04-01T08:47:03;11.10;99.90
41262;DHT22;29629;52.532;13.352;2023-04-01T08:52:37;11.10;99.90
41262;DHT22;29629;52.532;13.352;2023-04-01T08:55:20;11.10;99.90
41262;DHT22;29629;52.532;13.352;2023-04-01T08:58:08;11.20;99.90
41262;DHT22;29629;52.532;13.352;2023-04-01T09:00:45;11.00;99.90
41262;DHT22;29629;52.532;13.352;2023-04-01T09:03:37;11.10;99.90
41262;DHT22;29629;52.532;13.352;2023-04-01T09:06:28;11.20;99.90
41262;DHT22;29629;52.532;13.352;2023-04-01T09:12:17;11.10;99.90
41262;DHT22;29629;52.532;13.352;2023-04-01T09:15:15;11.10;99.90
41262;DHT22;29629;52.532;13.352;2023-04-01T09:20:58;11.30;99.90
41262;DHT22;29629;52.532;13.352;2023-04-01T09:23:47;11.20;99.90
41262;DHT22;29629;52.532;13.352;2023-04-01T09:26:34;11.00;99.90
41262;DHT22;29629;52.532;13.352;2023-04-01T09:29:17;10.90;99.90
41262;DHT22;29629;52.532;13.352;2023-04-01T09:32:01;10.90;99.90
41262;DHT22;29629;52.532;13.352;2023-04-01T09:34:53;10.80;99.90
41262;DHT22;29629;52.532;13.352;2023-04-01T09:37:25;10.80;99.90
41262;DHT22;29629;52.532;13.352;2023-04-01T09:40:09;10.70;99.90
41262;DHT22;29629;52.532;13.352;2023-04-01T09:42:45;10.60;99.90
41262;DHT22;29629;52.532;13.352;2023-04-01T09:45:31;10.70;99.90
41262;DHT22;29629;52.532;13.352;2023-04-01T09:48:15;10.70;99.90
41262;DHT22;29629;52.532;13.352;2023-04-01T09:50:47;10.50;99.90
41262;DHT22;29629;52.532;13.352;2023-04-01T09:53:42;10.60;99.90
41262;DHT22;29629;52.532;13.352;2023-04-01T09:59:50;10.70;99.90
41262;DHT22;29629;52.532;13.352;2023-04-01T10:02:50;10.50;99.90
41262;DHT22;29629;52.532;13.352;2023-04-01T10:11:56;10.40;99.90
41262;DHT22;29629;52.532;13.352;2023-04-01T10:17:50;10.40;99.90
41262;DHT22;29629;52.532;13.352;2023-04-01T10:23:40;10.40;99.90
41262;DHT22;29629;52.532;13.352;2023-04-01T10:26:29;10.40;99.90
41262;DHT22;29629;52.532;13.352;2023-04-01T10:32:27;10.40;99.90
41262;DHT22;29629;52.532;13.352;2023-04-01T10:38:28;10.40;99.90
41262;DHT22;29629;52.532;13.352;2023-04-01T10:44:36;10.40;99.90
41262;DHT22;29629;52.532;13.352;2023-04-01T10:47:39;10.40;99.90
41262;DHT22;29629;52.532;13.352;2023-04-01T10:50:34;10.10;99.90
41262;DHT22;29629;52.532;13.352;2023-04-01T10:53:30;10.10;99.90
41262;DHT22;29629;52.532;13.352;2023-04-01T10:56:29;10.20;99.90
41262;DHT22;29629;52.532;13.352;2023-04-01T11:05:24;10.20;99.90
41262;DHT22;29629;52.532;13.352;2023-04-01T11:08:30;10.20;99.90
41262;DHT22;29629;52.532;13.352;2023-04-01T11:11:41;10.20;99.90
41262;DHT22;29629;52.532;13.352;2023-04-01T11:17:40;10.30;99.90
41262;DHT22;29629;52.532;13.352;2023-04-01T11:20:24;10.20;99.90
41262;DHT22;29629;52.532;13.352;2023-04-01T11:23:13;10.20;99.90
41262;DHT22;29629;52.532;13.352;2023-04-01T11:26:07;10.30;99.90
41262;DHT22;29629;52.532;13.352;2023-04-01T11:31:55;10.40;99.90
41262;DHT22;29629;52.532;13.352;2023-04-01T11:35:06;10.30;99.90
41262;DHT22;29629;52.532;13.352;2023-04-01T11:37:42;10.40;99.90
41262;DHT22;29629;52.532;13.352;2023-04-01T11:40:20;10.20;99.90
41262;DHT22;29629;52.532;13.352;2023-04-01T11:42:55;10.30;99.90
41262;DHT22;29629;52.532;13.352;2023-04-01T11:45:34;10.30;99.90
41262;DHT22;29629;52.532;13.352;2023-04-01T11:48:20;10.30;99.90
41262;DHT22;29629;52.532;13.352;2023-04-01T11:51:03;10.30;99.90
41262;DHT22;29629;52.532;13.352;2023-04-01T11:53:41;10.20;99.90
41262;DHT22;29629;52.532;13.352;2023-04-01T11:56:19;10.20;99.90
41262;DHT22;29629;52.532;13.352;2023-04-01T11:58:58;10.20;99.90
41262;DHT22;29629;52.532;13.352;2023-04-01T12:01:46;10.20;99.90
41262;DHT22;29629;52.532;13.352;2023-04-01T12:07:21;10.10;99.90
41262;DHT22;29629;52.532;13.352;2023-04-01T12:09:55;9.90;99.90
41262;DHT22;29629;52.532;13.352;2023-04-01T12:12:29;9.80;99.90
41262;DHT22;29629;52.532;13.352;2023-04-01T12:15:16;9.80;99.90
41262;DHT22;29629;52.532;13.352;2023-04-01T12:17:50;9.80;99.90
41262;DHT22;29629;52.532;13.352;2023-04-01T12:20:33;9.70;99.90
41262;DHT22;29629;52.532;13.352;2023-04-01T12:23:14;9.80;99.90
41262;DHT22;29629;52.532;13.352;2023-04-01T12:26:10;10.00;99.90
41262;DHT22;29629;52.532;13.352;2023-04-01T12:28:52;9.80;99.90
41262;DHT22;29629;52.532;13.352;2023-04-01T12:31:31;9.80;99.90
41262;DHT22;29629;52.532;13.352;2023-04-01T12:34:31;9.90;99.90
41262;DHT22;29629;52.532;13.352;2023-04-01T12:37:10;9.70;99.90
41262;DHT22;29629;52.532;13.352;2023-04-01T12:40:01;9.70;99.90
41262;DHT22;29629;52.532;13.352;2023-04-01T12:42:44;9.80;99.90
41262;DHT22;29629;52.532;13.352;2023-04-01T12:45:27;9.80;99.90
41262;DHT22;29629;52.532;13.352;2023-04-01T12:48:13;9.90;99.90
41262;DHT22;29629;52.532;13.352;2023-04-01T12:53:45;9.70;99.90
41262;DHT22;29629;52.532;13.352;2023-04-01T12:56:19;9.50;99.90
41262;DHT22;29629;52.532;13.352;2023-04-01T12:59:14;9.60;99.90
41262;DHT22;29629;52.532;13.352;2023-04-01T13:02:00;9.60;99.90
41262;DHT22;29629;52.532;13.352;2023-04-01T13:08:04;9.60;99.90
41262;DHT22;29629;52.532;13.352;2023-04-01T13:10:45;9.50;99.90
41262;DHT22;29629;52.532;13.352;2023-04-01T13:13:29;9.40;99.90
41262;DHT22;29629;52.532;13.352;2023-04-01T13:16:02;9.40;99.90
41262;DHT22;29629;52.532;13.352;2023-04-01T13:18:39;9.40;99.90
41262;DHT22;29629;52.532;13.352;2023-04-01T13:21:13;9.40;99.90
41262;DHT22;29629;52.532;13.352;2023-04-01T13:23:54;9.40;99.90
41262;DHT22;29629;52.532;13.352;2023-04-01T13:26:27;9.50;99.90
41262;DHT22;29629;52.532;13.352;2023-04-01T13:28:59;9.40;99.90
41262;DHT22;29629;52.532;13.352;2023-04-01T13:31:38;9.30;99.90
41262;DHT22;29629;52.532;13.352;2023-04-01T13:34:27;9.50;99.90
41262;DHT22;29629;52.532;13.352;2023-04-01T13:37:09;9.50;99.90
41262;DHT22;29629;52.532;13.352;2023-04-01T13:39:54;9.40;99.90
41262;DHT22;29629;52.532;13.352;2023-04-01T13:42:25;9.30;99.90
41262;DHT22;29629;52.532;13.352;2023-04-01T13:44:59;9.40;99.90
41262;DHT22;29629;52.532;13.352;2023-04-01T13:47:53;9.20;99.90
41262;DHT22;29629;52.532;13.352;2023-04-01T13:50:45;9.40;99.90
41262;DHT22;29629;52.532;13.352;2023-04-01T13:53:30;9.30;99.90
41262;DHT22;29629;52.532;13.352;2023-04-01T13:56:22;9.30;99.90
41262;DHT22;29629;52.532;13.352;2023-04-01T13:59:03;9.30;99.90
41262;DHT22;29629;52.532;13.352;2023-04-01T14:01:40;9.40;99.90
41262;DHT22;29629;52.532;13.352;2023-04-01T14:07:35;9.30;99.90
41262;DHT22;29629;52.532;13.352;2023-04-01T14:10:17;9.30;99.90
41262;DHT22;29629;52.532;13.352;2023-04-01T14:12:55;9.20;99.90
41262;DHT22;29629;52.532;13.352;2023-04-01T14:15:34;9.20;99.90
41262;DHT22;29629;52.532;13.352;2023-04-01T14:18:23;9.20;99.90
41262;DHT22;29629;52.532;13.352;2023-04-01T14:21:13;9.30;99.90
41262;DHT22;29629;52.532;13.352;2023-04-01T14:24:06;9.00;99.90
41262;DHT22;29629;52.532;13.352;2023-04-01T14:27:09;9.10;99.90
41262;DHT22;29629;52.532;13.352;2023-04-01T14:29:48;9.00;99.90
41262;DHT22;29629;52.532;13.352;2023-04-01T14:32:27;8.90;99.90
41262;DHT22;29629;52.532;13.352;2023-04-01T14:35:14;9.10;99.90
41262;DHT22;29629;52.532;13.352;2023-04-01T14:38:02;9.10;99.90
41262;DHT22;29629;52.532;13.352;2023-04-01T14:40:48;9.10;99.90
41262;DHT22;29629;52.532;13.352;2023-04-01T14:43:43;8.90;99.90
41262;DHT22;29629;52.532;13.352;2023-04-01T14:46:48;8.90;99.90
41262;DHT22;29629;52.532;13.352;2023-04-01T14:49:21;8.90;99.90
41262;DHT22;29629;52.532;13.352;2023-04-01T14:51:49;9.00;99.90
41262;DHT22;29629;52.532;13.352;2023-04-01T14:54:21;9.10;99.90
41262;DHT22;29629;52.532;13.352;2023-04-01T14:56:51;9.00;99.90
41262;DHT22;29629;52.532;13.352;2023-04-01T14:59:27;8.90;99.90
41262;DHT22;29629;52.532;13.352;2023-04-01T15:02:00;8.60;99.90
41262;DHT22;29629;52.532;13.352;2023-04-01T15:04:37;8.70;99.90
41262;DHT22;29629;52.532;13.352;2023-04-01T15:07:27;8.70;99.90
41262;DHT22;29629;52.532;13.352;2023-04-01T15:10:07;8.60;99.90
41262;DHT22;29629;52.532;13.352;2023-04-01T15:12:39;8.70;99.90
41262;DHT22;29629;52.532;13.352;2023-04-01T15:15:21;8.70;99.90
41262;DHT22;29629;52.532;13.352;2023-04-01T15:18:05;8.50;99.90
41262;DHT22;29629;52.532;13.352;2023-04-01T15:21:02;8.50;99.90
41262;DHT22;29629;52.532;13.352;2023-04-01T15:23:40;8.40;99.90
41262;DHT22;29629;52.532;13.352;2023-04-01T15:26:33;8.50;99.90
41262;DHT22;29629;52.532;13.352;2023-04-01T15:29:21;8.50;99.90
41262;DHT22;29629;52.532;13.352;2023-04-01T15:31:53;8.50;99.90
41262;DHT22;29629;52.532;13.352;2023-04-01T15:34:32;8.30;99.90
41262;DHT22;29629;52.532;13.352;2023-04-01T15:37:08;8.40;99.90
41262;DHT22;29629;52.532;13.352;2023-04-01T15:39:49;8.40;99.90
41262;DHT22;29629;52.532;13.352;2023-04-01T15:42:48;8.30;99.90
41262;DHT22;29629;52.532;13.352;2023-04-01T15:45:34;8.30;99.90
41262;DHT22;29629;52.532;13.352;2023-04-01T15:48:13;8.30;99.90
41262;DHT22;29629;52.532;13.352;2023-04-01T15:50:58;8.40;99.90
41262;DHT22;29629;52.532;13.352;2023-04-01T15:56:30;8.20;99.90
41262;DHT22;29629;52.532;13.352;2023-04-01T15:59:14;8.20;99.90
41262;DHT22;29629;52.532;13.352;2023-04-01T16:01:50;8.30;99.90
41262;DHT22;29629;52.532;13.352;2023-04-01T16:04:46;8.20;99.90
41262;DHT22;29629;52.532;13.352;2023-04-01T16:07:30;8.10;99.90
41262;DHT22;29629;52.532;13.352;2023-04-01T16:10:17;8.00;99.90
41262;DHT22;29629;52.532;13.352;2023-04-01T16:12:57;8.00;99.90
41262;DHT22;29629;52.532;13.352;2023-04-01T16:15:32;8.10;99.90
41262;DHT22;29629;52.532;13.352;2023-04-01T16:21:00;8.10;99.90
41262;DHT22;29629;52.532;13.352;2023-04-01T16:23:37;8.10;99.90
41262;DHT22;29629;52.532;13.352;2023-04-01T16:26:11;8.00;99.90
41262;DHT22;29629;52.532;13.352;2023-04-01T16:28:47;7.90;99.90
41262;DHT22;29629;52.532;13.352;2023-04-01T16:31:27;7.90;99.90
41262;DHT22;29629;52.532;13.352;2023-04-01T16:34:02;7.90;99.90
41262;DHT22;29629;52.532;13.352;2023-04-01T16:36:35;7.80;99.90
41262;DHT22;29629;52.532;13.352;2023-04-01T16:39:18;7.80;99.90
41262;DHT22;29629;52.532;13.352;2023-04-01T16:41:51;7.80;99.90
41262;DHT22;29629;52.532;13.352;2023-04-01T16:44:21;7.80;99.90
41262;DHT22;29629;52.532;13.352;2023-04-01T16:46:51;7.70;99.90
41262;DHT22;29629;52.532;13.352;2023-04-01T16:49:32;7.50;99.90
41262;DHT22;29629;52.532;13.352;2023-04-01T16:52:17;7.50;99.90
41262;DHT22;29629;52.532;13.352;2023-04-01T16:55:01;7.50;99.90
41262;DHT22;29629;52.532;13.352;2023-04-01T16:57:35;7.50;99.90
41262;DHT22;29629;52.532;13.352;2023-04-01T17:00:15;7.50;99.90
41262;DHT22;29629;52.532;13.352;2023-04-01T17:02:49;7.40;99.90
41262;DHT22;29629;52.532;13.352;2023-04-01T17:05:18;7.40;99.90
41262;DHT22;29629;52.532;13.352;2023-04-01T17:07:53;7.40;99.90
41262;DHT22;29629;52.532;13.352;2023-04-01T17:10:40;7.30;99.90
41262;DHT22;29629;52.532;13.352;2023-04-01T17:13:33;7.20;99.90
41262;DHT22;29629;52.532;13.352;2023-04-01T17:16:12;7.20;99.90
41262;DHT22;29629;52.532;13.352;2023-04-01T17:18:46;7.10;99.90
41262;DHT22;29629;52.532;13.352;2023-04-01T17:21:17;7.20;99.90
41262;DHT22;29629;52.532;13.352;2023-04-01T17:23:50;7.30;99.90
41262;DHT22;29629;52.532;13.352;2023-04-01T17:26:28;7.30;99.90
41262;DHT22;29629;52.532;13.352;2023-04-01T17:29:04;7.10;99.90
41262;DHT22;29629;52.532;13.352;2023-04-01T17:31:42;7.10;99.90
41262;DHT22;29629;52.532;13.352;2023-04-01T17:34:41;7.00;99.90
41262;DHT22;29629;52.532;13.352;2023-04-01T17:37:25;7.00;99.90
41262;DHT22;29629;52.532;13.352;2023-04-01T17:40:04;6.90;99.90